Time;durP1;ratioP1;P1;durP2;ratioP2;P2;SDS_P1;SDS_P2;PMS_P1;PMS_P2;Temp;Humidity;BMP_temperature;BMP_pressure;BME280_temperature;BME280_humidity;BME280_pressure;Samples;Min_cycle;Max_cycle;Signal;HPM_P1;HPM_P2
2023/03/09 00:00:10;;;;;;;2.53;1.87;;;10.10;99.90;;;;;;5017919;28;20525;-42
2023/03/09 00:02:36;;;;;;;2.23;1.50;;;10.20;99.90;;;;;;5016605;28;20545;-42
2023/03/09 00:05:03;;;;;;;2.30;1.70;;;10.20;1.00;;;;;;5019053;28;20477;-39
2023/03/09 00:07:30;;;;;;;5.47;1.80;;;10.10;1.00;;;;;;5018965;28;20894;-41
2023/03/09 00:09:56;;;;;;;2.30;1.67;;;10.10;1.00;;;;;;5016941;28;20432;-41
2023/03/09 00:12:22;;;;;;;5.17;1.70;;;10.10;1.00;;;;;;5017761;28;20585;-40
2023/03/09 00:14:54;;;;;;;2.77;1.43;;;10.00;1.00;;;;;;5017449;28;20414;-40
2023/03/09 00:17:20;;;;;;;2.50;1.63;;;10.10;1.00;;;;;;5016442;28;20434;-43
2023/03/09 00:19:46;;;;;;;3.30;1.57;;;10.20;1.00;;;;;;5017098;28;20914;-42
2023/03/09 00:22:11;;;;;;;2.17;1.73;;;10.20;1.00;;;;;;5016249;28;20620;-40
2023/03/09 00:24:45;;;;;;;1.90;1.20;;;10.30;1.00;;;;;;5017090;28;20211;-41
2023/03/09 00:27:11;;;;;;;4.23;1.30;;;10.20;99.90;;;;;;5017947;28;20163;-40
2023/03/09 00:29:37;;;;;;;1.43;0.83;;;10.10;99.90;;;;;;5017743;28;20553;-39
2023/03/09 00:32:02;;;;;;;2.40;0.87;;;10.10;99.90;;;;;;5015871;28;20434;-39
2023/03/09 00:34:28;;;;;;;3.00;1.27;;;10.00;99.90;;;;;;5017180;28;20202;-39
2023/03/09 00:36:54;;;;;;;2.40;1.10;;;10.00;99.90;;;;;;5015814;28;20272;-39
2023/03/09 00:39:19;;;;;;;1.13;0.63;;;10.00;99.90;;;;;;5017256;28;20586;-39
2023/03/09 00:41:45;;;;;;;1.87;0.57;;;9.90;99.90;;;;;;5017216;28;20171;-41
2023/03/09 00:44:12;;;;;;;1.10;0.50;;;9.90;99.90;;;;;;5017083;28;20206;-40
2023/03/09 00:46:38;;;;;;;1.27;0.80;;;9.90;99.90;;;;;;5018010;28;20186;-42
2023/03/09 00:49:06;;;;;;;2.13;0.50;;;9.80;99.90;;;;;;5017514;28;20486;-40
2023/03/09 00:51:36;;;;;;;1.47;0.53;;;9.70;99.90;;;;;;5017812;28;20430;-43
2023/03/09 00:54:02;;;;;;;1.00;0.47;;;9.70;99.90;;;;;;5018099;28;20711;-40
2023/03/09 00:56:29;;;;;;;2.13;0.60;;;9.60;99.90;;;;;;5017202;28;20418;-40
2023/03/09 00:58:56;;;;;;;3.50;0.50;;;9.50;99.90;;;;;;5016888;28;20179;-40
2023/03/09 01:01:22;;;;;;;1.10;0.40;;;9.40;99.90;;;;;;5017080;28;20499;-39
2023/03/09 01:03:49;;;;;;;1.60;0.37;;;9.40;99.90;;;;;;5016800;28;20465;-40
2023/03/09 01:06:15;;;;;;;1.53;0.40;;;9.40;99.90;;;;;;5015578;28;20457;-40
2023/03/09 01:08:41;;;;;;;0.63;0.27;;;9.30;99.90;;;;;;5016829;28;20421;-40
2023/03/09 01:11:11;;;;;;;1.43;0.30;;;9.30;99.90;;;;;;5017331;28;20448;-41
2023/03/09 01:13:37;;;;;;;0.70;0.30;;;9.20;99.90;;;;;;5017761;28;20414;-41
2023/03/09 01:16:03;;;;;;;1.33;0.43;;;9.20;91.70;;;;;;5017497;28;20441;-39
2023/03/09 01:18:28;;;;;;;0.73;0.30;;;9.10;99.90;;;;;;5016367;28;20436;-41
2023/03/09 01:20:54;;;;;;;1.30;0.53;;;9.10;42.10;;;;;;5014734;28;20175;-40
2023/03/09 01:23:20;;;;;;;1.37;0.33;;;9.10;99.90;;;;;;5015298;28;20184;-39
2023/03/09 01:25:45;;;;;;;0.80;0.40;;;9.00;99.90;;;;;;5015912;28;20587;-40
2023/03/09 01:28:11;;;;;;;0.77;0.50;;;9.00;5.50;;;;;;5016230;28;20171;-39
2023/03/09 01:30:38;;;;;;;0.70;0.30;;;9.00;7.30;;;;;;5017103;28;20223;-39
2023/03/09 01:33:04;;;;;;;0.70;0.30;;;8.90;21.40;;;;;;5017449;28;20245;-41
2023/03/09 01:35:30;;;;;;;0.90;0.43;;;8.90;99.90;;;;;;5015953;28;20429;-40
2023/03/09 01:37:55;;;;;;;0.93;0.50;;;8.90;99.90;;;;;;5016757;28;20179;-40
2023/03/09 01:40:23;;;;;;;1.07;0.50;;;8.80;99.90;;;;;;5017680;28;20183;-41
2023/03/09 01:43:23;;;;;;;3.20;0.63;;;8.80;99.90;;;;;;5017392;28;20190;-41
2023/03/09 01:45:48;;;;;;;1.10;0.40;;;8.80;99.90;;;;;;5017693;28;20410;-39
2023/03/09 01:48:14;;;;;;;0.87;0.40;;;8.70;99.90;;;;;;5017088;28;20414;-40
2023/03/09 01:50:40;;;;;;;1.53;0.50;;;8.70;99.90;;;;;;5021452;28;20171;-39
2023/03/09 01:53:12;;;;;;;2.43;0.70;;;8.80;99.90;;;;;;5023892;28;20447;-39
2023/03/09 01:55:42;;;;;;;1.73;0.60;;;8.70;99.90;;;;;;5023167;28;20437;-42
2023/03/09 01:58:12;;;;;;;0.97;0.70;;;8.80;99.90;;;;;;5021977;28;20422;-40
2023/03/09 02:00:41;;;;;;;1.10;0.40;;;8.70;99.90;;;;;;5022675;28;20420;-41
2023/03/09 02:03:10;;;;;;;1.57;0.40;;;8.70;99.90;;;;;;5023553;28;20420;-40
2023/03/09 02:05:44;;;;;;;1.07;0.40;;;8.60;99.90;;;;;;5023813;28;20496;-40
2023/03/09 02:08:10;;;;;;;0.83;0.40;;;8.60;99.90;;;;;;5023001;28;20440;-41
2023/03/09 02:10:39;;;;;;;1.53;0.50;;;8.50;99.90;;;;;;5023272;28;20704;-40
2023/03/09 02:13:10;;;;;;;1.50;0.60;;;8.50;99.90;;;;;;5021699;28;20433;-40
2023/03/09 02:15:35;;;;;;;0.60;0.30;;;8.50;99.90;;;;;;5023719;28;20524;-40
2023/03/09 02:18:01;;;;;;;0.80;0.50;;;8.40;99.90;;;;;;5023619;28;21003;-39
2023/03/09 02:20:46;;;;;;;2.33;0.60;;;8.40;99.90;;;;;;5024107;28;20191;-40
2023/03/09 02:23:36;;;;;;;2.73;0.50;;;8.40;99.90;;;;;;5023422;28;20729;-41
2023/03/09 02:26:39;;;;;;;2.20;0.40;;;8.40;99.90;;;;;;5024408;28;20428;-41
2023/03/09 02:29:04;;;;;;;1.23;0.30;;;8.40;99.90;;;;;;5001350;28;20513;-40
2023/03/09 02:31:31;;;;;;;0.90;0.40;;;8.40;99.90;;;;;;5022915;28;20509;-40
2023/03/09 02:33:56;;;;;;;0.80;0.30;;;8.30;99.90;;;;;;5023023;28;20462;-40
2023/03/09 02:36:23;;;;;;;0.80;0.40;;;8.40;99.90;;;;;;5021807;28;20717;-40
2023/03/09 02:38:49;;;;;;;1.00;0.30;;;8.40;99.90;;;;;;5021773;28;20569;-39
2023/03/09 02:41:15;;;;;;;1.17;0.50;;;8.30;99.90;;;;;;5022605;28;20759;-41
2023/03/09 02:43:47;;;;;;;0.70;0.40;;;8.30;99.90;;;;;;5022576;28;20503;-40
2023/03/09 02:46:13;;;;;;;2.80;0.57;;;8.30;99.90;;;;;;5024051;28;20167;-41
2023/03/09 02:48:38;;;;;;;0.80;0.40;;;8.30;99.90;;;;;;5023274;28;20501;-42
2023/03/09 02:51:06;;;;;;;0.87;0.57;;;8.40;99.90;;;;;;5023679;28;20175;-39
2023/03/09 02:53:32;;;;;;;1.80;0.73;;;8.40;99.90;;;;;;5023495;28;20172;-41
2023/03/09 02:55:57;;;;;;;1.70;0.60;;;8.50;99.90;;;;;;5023534;28;20595;-40
2023/03/09 02:58:23;;;;;;;2.07;0.60;;;8.50;99.90;;;;;;5022457;28;20418;-41
2023/03/09 03:00:49;;;;;;;1.90;0.80;;;8.50;99.90;;;;;;5021458;28;20488;-40
2023/03/09 03:03:14;;;;;;;1.10;0.50;;;8.60;99.90;;;;;;5018929;28;20190;-41
2023/03/09 03:05:40;;;;;;;2.73;0.77;;;8.60;99.90;;;;;;5019654;28;20206;-41
2023/03/09 03:08:06;;;;;;;2.10;0.77;;;8.70;99.90;;;;;;5019006;28;20182;-41
2023/03/09 03:10:31;;;;;;;1.90;0.63;;;8.60;99.90;;;;;;5019208;28;20182;-41
2023/03/09 03:12:57;;;;;;;1.90;0.60;;;8.60;99.90;;;;;;5019553;28;20558;-41
2023/03/09 03:15:22;;;;;;;1.10;0.50;;;8.60;99.90;;;;;;5019126;28;20175;-42
2023/03/09 03:17:48;;;;;;;1.40;0.60;;;8.70;99.90;;;;;;5018219;28;20175;-40
2023/03/09 03:20:14;;;;;;;1.07;0.60;;;8.80;99.90;;;;;;5018729;28;20190;-40
2023/03/09 03:22:43;;;;;;;2.03;1.10;;;8.90;99.90;;;;;;5019032;28;20419;-40
2023/03/09 03:25:09;;;;;;;1.27;0.63;;;8.90;99.90;;;;;;5019088;28;20469;-41
2023/03/09 03:27:34;;;;;;;1.20;0.60;;;8.90;99.90;;;;;;5019506;28;20425;-41
2023/03/09 03:30:00;;;;;;;0.90;0.43;;;8.90;99.90;;;;;;5020948;28;20993;-42
2023/03/09 03:32:26;;;;;;;1.00;0.50;;;8.90;99.90;;;;;;5020130;28;20183;-41
2023/03/09 03:34:52;;;;;;;1.93;0.53;;;8.80;99.90;;;;;;5020531;28;20185;-41
2023/03/09 03:37:18;;;;;;;4.30;0.53;;;8.80;99.90;;;;;;5020489;28;20454;-40
2023/03/09 03:39:43;;;;;;;0.90;0.50;;;8.70;1.00;;;;;;5020275;28;20187;-40
2023/03/09 03:42:09;;;;;;;1.10;0.50;;;8.70;12.80;;;;;;5018757;28;20190;-41
2023/03/09 03:44:35;;;;;;;1.17;0.40;;;8.60;1.00;;;;;;5020188;28;20222;-40
2023/03/09 03:47:00;;;;;;;2.13;0.50;;;8.50;1.00;;;;;;5020042;28;20186;-40
2023/03/09 03:49:26;;;;;;;2.20;0.40;;;8.50;5.30;;;;;;5019337;28;20186;-41
2023/03/09 03:51:52;;;;;;;1.00;0.40;;;8.40;21.20;;;;;;5020347;28;20203;-41
2023/03/09 03:54:18;;;;;;;3.13;0.80;;;8.40;1.00;;;;;;5020017;28;20878;-42
2023/03/09 03:56:43;;;;;;;2.67;0.73;;;8.40;1.00;;;;;;5019825;28;20183;-41
2023/03/09 03:59:10;;;;;;;3.10;1.00;;;8.30;2.20;;;;;;5019210;28;20179;-42
2023/03/09 04:01:35;;;;;;;3.73;0.90;;;8.30;9.90;;;;;;5018951;28;20179;-42
2023/03/09 04:04:02;;;;;;;6.53;1.93;;;8.30;1.00;;;;;;5017595;28;20882;-41
2023/03/09 04:06:27;;;;;;;1.70;1.00;;;8.30;1.00;;;;;;5016785;28;20505;-41
2023/03/09 04:08:53;;;;;;;3.70;1.20;;;8.30;1.00;;;;;;5016350;28;20566;-41
2023/03/09 04:11:18;;;;;;;2.20;1.43;;;8.20;48.90;;;;;;5016081;28;20462;-41
2023/03/09 04:13:48;;;;;;;3.63;1.33;;;8.20;37.10;;;;;;5017251;28;20202;-42
2023/03/09 04:16:14;;;;;;;3.77;1.30;;;8.20;70.40;;;;;;5016726;28;20467;-42
2023/03/09 04:18:39;;;;;;;2.53;1.23;;;8.20;37.60;;;;;;5016437;28;20426;-40
2023/03/09 04:21:05;;;;;;;4.70;1.77;;;8.20;35.90;;;;;;5016867;28;20175;-41
2023/03/09 04:23:31;;;;;;;3.23;1.70;;;8.20;19.20;;;;;;5017346;28;20179;-41
2023/03/09 04:25:58;;;;;;;3.10;1.50;;;8.20;42.10;;;;;;5017822;28;20164;-41
2023/03/09 04:28:24;;;;;;;8.00;2.00;;;8.20;1.00;;;;;;5017315;28;20336;-42
2023/03/09 04:30:50;;;;;;;3.90;2.00;;;8.20;1.00;;;;;;5017434;28;20473;-42
2023/03/09 04:33:16;;;;;;;4.90;1.50;;;8.30;1.00;;;;;;5017605;28;20406;-41
2023/03/09 04:35:42;;;;;;;5.63;1.40;;;8.30;1.00;;;;;;5016555;28;20914;-41
2023/03/09 04:38:08;;;;;;;4.30;2.10;;;8.30;1.00;;;;;;5017736;28;20175;-42
2023/03/09 04:40:34;;;;;;;4.60;1.77;;;8.30;1.00;;;;;;5018726;28;20510;-41
2023/03/09 04:43:00;;;;;;;7.23;2.80;;;8.40;1.00;;;;;;5018220;28;20418;-42
2023/03/09 04:45:26;;;;;;;6.93;2.40;;;8.30;1.00;;;;;;5015570;28;20488;-41
2023/03/09 04:47:52;;;;;;;8.03;2.90;;;8.30;1.00;;;;;;5017872;28;20564;-41
2023/03/09 04:50:17;;;;;;;5.10;2.07;;;8.30;1.00;;;;;;5018435;28;20175;-40
2023/03/09 04:52:43;;;;;;;8.37;2.30;;;8.30;1.00;;;;;;5016131;28;20229;-40
2023/03/09 04:55:09;;;;;;;5.57;2.03;;;8.30;1.00;;;;;;5015636;28;20274;-41
2023/03/09 04:57:34;;;;;;;4.80;2.57;;;8.30;1.00;;;;;;5015925;28;20265;-40
2023/03/09 05:00:00;;;;;;;5.53;1.97;;;8.20;1.00;;;;;;5014831;28;20434;-41
2023/03/09 05:02:28;;;;;;;5.63;1.80;;;8.20;1.00;;;;;;5013438;28;20175;-40
2023/03/09 05:04:54;;;;;;;4.33;1.80;;;8.30;99.90;;;;;;5013254;28;20611;-46
2023/03/09 05:07:20;;;;;;;5.30;1.77;;;8.30;99.90;;;;;;5015696;28;20425;-41
2023/03/09 05:09:46;;;;;;;9.53;2.10;;;8.30;99.90;;;;;;5015985;28;20852;-40
2023/03/09 05:12:11;;;;;;;6.43;2.90;;;8.30;99.90;;;;;;5017260;28;20186;-41
2023/03/09 05:14:37;;;;;;;9.10;2.03;;;8.30;99.90;;;;;;5017489;28;20248;-40
2023/03/09 05:17:03;;;;;;;7.07;2.57;;;8.30;99.90;;;;;;5017934;28;20423;-40
2023/03/09 05:19:29;;;;;;;6.73;1.53;;;8.30;99.90;;;;;;5017672;28;20470;-39
2023/03/09 05:21:55;;;;;;;5.87;2.40;;;8.30;99.90;;;;;;5022002;28;20496;-39
2023/03/09 05:24:21;;;;;;;5.80;2.27;;;8.30;99.90;;;;;;5036293;28;20469;-51
2023/03/09 05:26:46;;;;;;;3.73;1.47;;;8.30;99.90;;;;;;5037231;28;20565;-40
2023/03/09 05:29:12;;;;;;;8.80;2.20;;;8.30;1.00;;;;;;5035203;28;20250;-39
2023/03/09 05:31:38;;;;;;;9.00;2.20;;;8.30;1.00;;;;;;5034599;28;20305;-40
2023/03/09 05:34:03;;;;;;;5.60;2.30;;;8.30;1.00;;;;;;5033752;28;20448;-40
2023/03/09 05:36:29;;;;;;;7.63;1.97;;;8.30;1.00;;;;;;5033271;28;20198;-40
2023/03/09 05:38:55;;;;;;;6.23;2.20;;;8.30;99.90;;;;;;5034150;28;20190;-41
2023/03/09 05:41:21;;;;;;;4.50;2.13;;;8.30;99.90;;;;;;5034124;28;20182;-40
2023/03/09 05:43:47;;;;;;;7.20;1.80;;;8.30;99.90;;;;;;5033169;28;20483;-41
2023/03/09 05:46:15;;;;;;;9.90;2.20;;;8.40;99.90;;;;;;5032442;28;20174;-40
2023/03/09 05:48:42;;;;;;;10.50;2.63;;;8.40;99.90;;;;;;5034181;28;20214;-42
2023/03/09 05:51:08;;;;;;;6.63;2.57;;;8.50;99.90;;;;;;5035421;28;20440;-40
2023/03/09 05:53:34;;;;;;;7.03;1.90;;;8.50;99.90;;;;;;5035169;28;20401;-41
2023/03/09 05:56:00;;;;;;;4.90;2.13;;;8.40;99.90;;;;;;5034652;28;20421;-40
2023/03/09 05:58:26;;;;;;;6.67;2.20;;;8.40;99.90;;;;;;5032932;28;20368;-40
2023/03/09 06:00:52;;;;;;;5.47;1.90;;;8.50;99.90;;;;;;5030005;28;20192;-42
2023/03/09 06:03:19;;;;;;;3.87;2.20;;;8.40;1.00;;;;;;5031764;28;20171;-41
2023/03/09 06:05:45;;;;;;;5.77;2.03;;;8.40;1.00;;;;;;5031070;28;20499;-42
2023/03/09 06:08:11;;;;;;;9.27;2.53;;;8.40;1.00;;;;;;5031163;28;20504;-42
2023/03/09 06:10:37;;;;;;;3.97;2.00;;;8.40;99.90;;;;;;5030188;28;20519;-41
2023/03/09 06:13:03;;;;;;;5.90;2.23;;;8.50;99.90;;;;;;5028530;28;20311;-40
2023/03/09 06:15:29;;;;;;;5.33;3.07;;;8.60;99.90;;;;;;5023581;28;20432;-40
2023/03/09 06:17:55;;;;;;;5.43;1.90;;;8.50;99.90;;;;;;5022929;28;20421;-40
2023/03/09 06:20:20;;;;;;;6.37;2.10;;;8.50;99.90;;;;;;5024316;28;20181;-41
2023/03/09 06:22:46;;;;;;;6.17;2.27;;;8.40;99.90;;;;;;5023925;28;20174;-41
2023/03/09 06:25:12;;;;;;;5.23;1.77;;;8.50;99.90;;;;;;5024854;28;20220;-41
2023/03/09 06:27:38;;;;;;;3.83;1.70;;;8.50;99.90;;;;;;5025926;28;20506;-42
2023/03/09 06:30:05;;;;;;;5.03;1.93;;;8.60;99.90;;;;;;5024375;28;20484;-41
2023/03/09 06:32:34;;;;;;;9.00;2.97;;;8.60;99.90;;;;;;5023257;28;20620;-43
2023/03/09 06:35:00;;;;;;;6.10;2.33;;;8.60;99.90;;;;;;5024283;28;20425;-42
2023/03/09 06:37:26;;;;;;;6.30;2.00;;;8.70;99.90;;;;;;5026855;28;20429;-42
2023/03/09 06:39:52;;;;;;;5.77;1.90;;;8.70;99.90;;;;;;5029613;28;20429;-42
2023/03/09 06:42:18;;;;;;;3.40;1.80;;;8.70;99.90;;;;;;5032005;28;20455;-41
2023/03/09 06:44:44;;;;;;;7.30;1.97;;;8.80;99.90;;;;;;5030205;28;20626;-39
2023/03/09 06:47:10;;;;;;;8.57;2.03;;;8.80;99.90;;;;;;5032136;28;20178;-40
2023/03/09 06:49:36;;;;;;;6.67;1.80;;;8.90;99.90;;;;;;5034131;28;20409;-41
2023/03/09 06:52:02;;;;;;;8.50;2.60;;;8.90;99.90;;;;;;5034332;28;20724;-41
2023/03/09 06:54:27;;;;;;;5.30;1.80;;;8.90;99.90;;;;;;5036294;28;20465;-41
2023/03/09 06:56:53;;;;;;;5.67;2.37;;;8.90;99.90;;;;;;5037265;28;20175;-40
2023/03/09 06:59:19;;;;;;;5.90;1.73;;;8.80;99.90;;;;;;5034674;28;20189;-41
2023/03/09 07:01:45;;;;;;;7.23;1.63;;;8.80;1.00;;;;;;5033552;28;20190;-40
2023/03/09 07:04:11;;;;;;;2.87;1.40;;;8.80;99.90;;;;;;5033189;28;20222;-40
2023/03/09 07:06:37;;;;;;;6.37;2.90;;;8.80;99.90;;;;;;5031446;28;20417;-40
2023/03/09 07:09:03;;;;;;;5.63;1.97;;;8.80;99.90;;;;;;5033263;28;20444;-41
2023/03/09 07:11:29;;;;;;;4.97;1.67;;;8.80;99.90;;;;;;5034599;28;20171;-41
2023/03/09 07:13:55;;;;;;;5.00;1.50;;;8.90;99.90;;;;;;5035123;28;20778;-41
2023/03/09 07:16:22;;;;;;;7.77;1.87;;;8.90;99.90;;;;;;5036752;28;20425;-40
2023/03/09 07:18:48;;;;;;;6.30;2.00;;;9.10;1.00;;;;;;5035724;28;20599;-41
2023/03/09 07:21:14;;;;;;;6.50;1.80;;;9.20;1.00;;;;;;5031611;28;20914;-40
2023/03/09 07:23:40;;;;;;;6.87;1.90;;;9.30;1.00;;;;;;5032218;28;20544;-41
2023/03/09 07:26:06;;;;;;;7.20;2.10;;;9.30;99.90;;;;;;5031115;28;20433;-41
2023/03/09 07:28:32;;;;;;;12.80;3.73;;;9.40;1.00;;;;;;5032461;28;20615;-39
2023/03/09 07:30:58;;;;;;;6.07;1.80;;;9.60;41.10;;;;;;5031322;28;20457;-49
2023/03/09 07:33:24;;;;;;;6.10;2.20;;;9.70;1.00;;;;;;5032958;28;20448;-41
2023/03/09 07:35:49;;;;;;;6.53;2.10;;;9.80;1.00;;;;;;5033466;28;20432;-40
2023/03/09 07:38:15;;;;;;;5.60;1.70;;;9.80;99.90;;;;;;5033622;28;20193;-41
2023/03/09 07:40:41;;;;;;;4.90;1.90;;;9.70;1.00;;;;;;5034027;28;20174;-39
2023/03/09 07:43:09;;;;;;;8.70;2.17;;;9.80;1.00;;;;;;5034432;28;20174;-40
2023/03/09 07:45:34;;;;;;;5.27;1.80;;;9.90;1.00;;;;;;5034804;28;20358;-40
2023/03/09 07:48:00;;;;;;;5.40;1.70;;;10.10;1.00;;;;;;5032412;28;20708;-40
2023/03/09 07:50:26;;;;;;;6.00;1.93;;;10.30;1.00;;;;;;5034433;28;20360;-41
2023/03/09 07:52:54;;;;;;;5.43;1.83;;;10.40;99.90;;;;;;5035869;28;20469;-39
2023/03/09 07:55:22;;;;;;;5.57;1.60;;;10.60;99.90;;;;;;5035631;28;20576;-40
2023/03/09 07:57:48;;;;;;;5.47;1.50;;;10.70;1.00;;;;;;5032883;28;20711;-41
2023/03/09 08:00:20;;;;;;;4.43;1.20;;;10.90;99.90;;;;;;5032214;28;20673;-41
2023/03/09 08:02:46;;;;;;;5.10;2.07;;;11.20;99.90;;;;;;5061368;28;20503;-41
2023/03/09 08:05:12;;;;;;;3.37;1.83;;;11.10;1.00;;;;;;5029451;28;20470;-39
2023/03/09 08:07:42;;;;;;;5.13;1.57;;;11.10;1.00;;;;;;5031497;28;20502;-39
2023/03/09 08:10:09;;;;;;;4.20;1.27;;;11.20;1.00;;;;;;5028700;28;20491;-43
2023/03/09 08:12:34;;;;;;;2.10;0.90;;;11.00;12.40;;;;;;5031367;28;20532;-42
2023/03/09 08:15:00;;;;;;;3.43;1.17;;;10.90;79.50;;;;;;5035551;28;20504;-41
2023/03/09 08:17:27;;;;;;;3.30;1.30;;;10.90;1.00;;;;;;5032210;28;20483;-42
2023/03/09 08:19:53;;;;;;;4.47;1.60;;;11.00;99.90;;;;;;5034202;28;20425;-43
2023/03/09 08:22:18;;;;;;;4.20;2.40;;;11.00;1.00;;;;;;5032932;28;20436;-40
2023/03/09 08:24:44;;;;;;;6.17;1.60;;;10.90;99.90;;;;;;5030719;28;20276;-40
2023/03/09 08:27:10;;;;;;;4.40;1.57;;;11.00;99.90;;;;;;5034186;28;20255;-40
2023/03/09 08:29:35;;;;;;;7.20;1.53;;;10.80;99.90;;;;;;5034381;28;20234;-41
2023/03/09 08:32:07;;;;;;;3.53;1.07;;;10.70;99.90;;;;;;5033764;28;20174;-39
2023/03/09 08:34:33;;;;;;;6.07;1.37;;;10.80;1.00;;;;;;5034764;28;20452;-42
2023/03/09 08:36:59;;;;;;;4.37;1.70;;;10.80;43.80;;;;;;5032046;28;20433;-40
2023/03/09 08:39:26;;;;;;;4.13;2.47;;;10.70;1.00;;;;;;5033053;28;20186;-41
2023/03/09 08:41:52;;;;;;;2.03;0.97;;;10.50;1.00;;;;;;5031885;28;20456;-40
2023/03/09 08:44:18;;;;;;;4.57;1.70;;;10.40;99.90;;;;;;5034221;28;20723;-40
2023/03/09 08:46:43;;;;;;;3.57;1.20;;;10.30;99.90;;;;;;5032939;28;20564;-41
2023/03/09 08:49:09;;;;;;;3.37;1.10;;;10.20;99.90;;;;;;5033530;28;20249;-42
2023/03/09 08:51:35;;;;;;;8.17;1.30;;;10.20;1.00;;;;;;5033242;28;20209;-40
2023/03/09 08:54:00;;;;;;;3.20;1.80;;;10.50;1.00;;;;;;5032093;28;20187;-40
2023/03/09 08:56:26;;;;;;;2.87;0.93;;;10.90;1.00;;;;;;5032484;28;20167;-41
2023/03/09 08:58:52;;;;;;;3.93;2.10;;;11.10;53.80;;;;;;5031118;28;20178;-41
2023/03/09 09:01:18;;;;;;;5.73;1.00;;;11.10;1.00;;;;;;5030399;28;20174;-40
2023/03/09 09:03:43;;;;;;;2.90;0.93;;;11.10;1.00;;;;;;5031788;28;20185;-40
2023/03/09 09:06:12;;;;;;;5.03;1.37;;;11.10;99.90;;;;;;5031167;28;20178;-41
2023/03/09 09:08:38;;;;;;;3.00;1.27;;;11.10;99.90;;;;;;5034570;28;20700;-41
2023/03/09 09:11:09;;;;;;;2.90;1.40;;;10.80;1.00;;;;;;5032699;28;20422;-41
2023/03/09 09:13:34;;;;;;;4.93;1.13;;;10.60;48.50;;;;;;5033354;28;20505;-42
2023/03/09 09:16:05;;;;;;;4.67;1.10;;;10.30;99.90;;;;;;5033229;28;20429;-40
2023/03/09 09:18:31;;;;;;;2.53;0.90;;;10.10;99.90;;;;;;5035910;28;20175;-41
2023/03/09 09:20:57;;;;;;;5.80;1.20;;;9.80;1.00;;;;;;5036132;28;20425;-41
2023/03/09 09:23:23;;;;;;;5.60;1.07;;;9.70;99.90;;;;;;5035465;28;20417;-39
2023/03/09 09:25:56;;;;;;;3.50;0.90;;;9.60;1.00;;;;;;5033983;28;20551;-40
2023/03/09 09:28:23;;;;;;;4.20;1.20;;;9.70;1.00;;;;;;5032406;28;20520;-39
2023/03/09 09:30:59;;;;;;;4.20;1.43;;;9.90;1.00;;;;;;5035355;28;20460;-40
2023/03/09 09:33:29;;;;;;;3.73;1.40;;;10.10;1.00;;;;;;5033686;28;20440;-40
2023/03/09 09:36:15;;;;;;;7.30;2.20;;;10.20;99.90;;;;;;5033018;28;20460;-39
2023/03/09 09:38:42;;;;;;;5.17;1.30;;;10.60;99.90;;;;;;5033288;28;20417;-41
2023/03/09 09:41:30;;;;;;;4.53;1.70;;;10.70;1.00;;;;;;5034360;28;20444;-40
2023/03/09 09:44:00;;;;;;;5.67;1.40;;;10.90;1.00;;;;;;5034074;28;20862;-39
2023/03/09 09:46:26;;;;;;;4.53;1.40;;;11.00;1.00;;;;;;5018239;28;20708;-40
2023/03/09 09:48:52;;;;;;;2.33;1.00;;;10.70;99.90;;;;;;5034698;28;20422;-41
2023/03/09 09:51:20;;;;;;;2.93;1.30;;;10.70;1.00;;;;;;5036111;28;20429;-39
2023/03/09 09:53:52;;;;;;;2.10;1.00;;;10.70;1.00;;;;;;5035053;28;20584;-40
2023/03/09 09:56:22;;;;;;;3.47;1.00;;;10.60;99.90;;;;;;5035095;28;20452;-42
2023/03/09 09:58:54;;;;;;;4.20;0.90;;;10.70;99.90;;;;;;5034830;28;20417;-41
2023/03/09 10:02:02;;;;;;;2.50;0.83;;;10.80;99.90;;;;;;5033772;28;20417;-39
2023/03/09 10:04:32;;;;;;;2.70;1.00;;;10.80;99.90;;;;;;5031190;28;20468;-40
2023/03/09 10:07:00;;;;;;;2.63;1.13;;;10.90;99.90;;;;;;5031822;28;20503;-42
2023/03/09 10:09:28;;;;;;;2.63;1.57;;;11.00;1.00;;;;;;5011672;28;20888;-41
2023/03/09 10:11:57;;;;;;;3.70;1.10;;;10.90;99.90;;;;;;5015192;28;20444;-40
2023/03/09 10:14:28;;;;;;;2.97;1.03;;;10.90;1.00;;;;;;5035275;28;20421;-41
2023/03/09 10:17:03;;;;;;;1.80;1.00;;;10.90;64.50;;;;;;5034139;28;20826;-39
2023/03/09 10:19:32;;;;;;;3.20;0.90;;;10.70;32.40;;;;;;5033808;28;20488;-39
2023/03/09 10:22:03;;;;;;;4.03;1.00;;;10.60;99.90;;;;;;5034958;28;20456;-39
2023/03/09 10:24:36;;;;;;;4.13;1.07;;;10.60;99.90;;;;;;5032263;28;20770;-39
2023/03/09 10:27:17;;;;;;;3.80;1.30;;;10.80;99.90;;;;;;5033959;28;20429;-41
2023/03/09 10:29:53;;;;;;;1.60;0.90;;;11.00;1.00;;;;;;5033513;28;20818;-39
2023/03/09 10:32:40;;;;;;;4.40;1.10;;;11.00;18.30;;;;;;5030654;28;20918;-40
2023/03/09 10:35:18;;;;;;;3.47;1.50;;;11.00;1.00;;;;;;5034879;28;20536;-42
2023/03/09 10:37:45;;;;;;;2.93;0.90;;;11.20;1.00;;;;;;5036242;28;20448;-40
2023/03/09 10:40:20;;;;;;;3.03;1.20;;;11.70;99.90;;;;;;5033679;28;20413;-41
2023/03/09 10:42:46;;;;;;;1.50;1.00;;;12.20;1.00;;;;;;5031776;28;20459;-39
2023/03/09 10:45:32;;;;;;;2.90;1.17;;;12.50;1.00;;;;;;5035517;28;20492;-43
2023/03/09 10:48:02;;;;;;;3.70;1.20;;;13.00;99.90;;;;;;5037396;28;20179;-42
2023/03/09 10:51:13;;;;;;;2.60;1.37;;;13.00;17.90;;;;;;5035417;28;20806;-40
2023/03/09 10:53:48;;;;;;;3.40;0.97;;;13.30;1.00;;;;;;5027237;28;20432;-40
2023/03/09 10:56:20;;;;;;;5.70;1.63;;;14.00;1.00;;;;;;5035653;28;20421;-41
2023/03/09 10:58:47;;;;;;;4.03;1.20;;;13.80;99.90;;;;;;5037233;28;20645;-41
2023/03/09 11:01:15;;;;;;;4.00;1.20;;;13.90;99.90;;;;;;5035989;28;20877;-45
2023/03/09 11:03:42;;;;;;;2.57;1.23;;;14.20;99.90;;;;;;5037401;28;20727;-53
2023/03/09 11:06:28;;;;;;;5.03;1.57;;;14.70;99.90;;;;;;5036308;28;20431;-42
2023/03/09 11:09:07;;;;;;;5.97;1.33;;;14.30;37.10;;;;;;5035548;28;20424;-42
2023/03/09 11:11:33;;;;;;;2.90;1.20;;;14.40;22.40;;;;;;5035870;28;20547;-42
2023/03/09 11:13:59;;;;;;;7.93;1.47;;;14.50;1.90;;;;;;5035544;28;20464;-42
2023/03/09 11:16:34;;;;;;;3.73;1.43;;;14.40;6.40;;;;;;5037979;28;20421;-42
2023/03/09 11:19:13;;;;;;;5.97;1.70;;;14.70;1.60;;;;;;5036001;28;20846;-43
2023/03/09 11:22:00;;;;;;;5.83;1.50;;;14.60;1.00;;;;;;5033800;28;20668;-43
2023/03/09 11:24:38;;;;;;;6.13;1.70;;;13.80;1.00;;;;;;5036353;28;20457;-42
2023/03/09 11:27:08;;;;;;;6.43;1.37;;;14.30;1.00;;;;;;5034059;28;20786;-43
2023/03/09 11:29:55;;;;;;;5.00;1.67;;;14.50;1.00;;;;;;5033391;28;20528;-42
2023/03/09 11:32:21;;;;;;;4.30;1.27;;;13.90;1.00;;;;;;5033444;28;20689;-42
2023/03/09 11:34:47;;;;;;;2.87;1.50;;;13.60;1.00;;;;;;5034249;28;20424;-41
2023/03/09 11:37:28;;;;;;;7.70;1.80;;;13.20;1.00;;;;;;5031241;28;20244;-43
2023/03/09 11:40:01;;;;;;;12.40;1.67;;;12.90;12.90;;;;;;5030519;28;20552;-42
2023/03/09 11:42:59;;;;;;;4.00;1.67;;;13.10;54.00;;;;;;5031937;28;20417;-41
2023/03/09 11:45:31;;;;;;;3.97;1.33;;;13.10;88.50;;;;;;5029814;28;20465;-41
2023/03/09 11:48:08;;;;;;;3.73;1.43;;;13.00;99.90;;;;;;5032827;28;20813;-41
2023/03/09 11:50:46;;;;;;;6.87;1.20;;;12.70;99.90;;;;;;5032216;28;20440;-43
2023/03/09 11:53:24;;;;;;;3.63;1.10;;;12.60;99.90;;;;;;5032092;28;20507;-42
2023/03/09 11:55:54;;;;;;;3.67;1.30;;;12.30;99.90;;;;;;5034214;28;20932;-41
2023/03/09 11:58:23;;;;;;;6.33;1.80;;;12.20;1.00;;;;;;5034360;28;20432;-42
2023/03/09 12:00:52;;;;;;;3.87;1.40;;;12.10;1.00;;;;;;5016306;28;20920;-41
2023/03/09 12:03:19;;;;;;;6.10;1.60;;;12.10;1.00;;;;;;5032873;28;20429;-41
2023/03/09 12:05:57;;;;;;;6.07;1.20;;;11.90;1.00;;;;;;5032789;28;20526;-42
2023/03/09 12:08:28;;;;;;;2.73;1.27;;;11.90;1.00;;;;;;5033201;28;20413;-43
2023/03/09 12:11:15;;;;;;;7.40;1.63;;;12.00;1.00;;;;;;5032770;28;20423;-40
2023/03/09 12:13:54;;;;;;;5.80;1.40;;;12.00;1.00;;;;;;5033465;28;20514;-43
2023/03/09 12:16:33;;;;;;;4.23;1.53;;;12.20;1.00;;;;;;5032168;28;20547;-43
2023/03/09 12:19:20;;;;;;;5.50;1.73;;;12.40;1.00;;;;;;5029949;28;20409;-43
2023/03/09 12:21:57;;;;;;;3.33;1.20;;;12.60;1.00;;;;;;5031727;28;20441;-42
2023/03/09 12:24:37;;;;;;;3.67;1.27;;;12.80;1.00;;;;;;5032843;28;20857;-42
2023/03/09 12:27:23;;;;;;;5.60;1.40;;;12.80;99.90;;;;;;5031976;28;20512;-42
2023/03/09 12:29:59;;;;;;;4.77;1.90;;;12.90;99.90;;;;;;5031736;28;20469;-41
2023/03/09 12:32:24;;;;;;;4.90;1.90;;;13.20;99.90;;;;;;5033722;28;20416;-41
2023/03/09 12:34:55;;;;;;;6.53;1.73;;;13.40;99.90;;;;;;5032335;28;20436;-42
2023/03/09 12:37:36;;;;;;;3.00;1.10;;;13.40;99.90;;;;;;5034077;28;20186;-42
2023/03/09 12:40:19;;;;;;;3.63;1.07;;;13.70;73.80;;;;;;5033594;28;20495;-44
2023/03/09 12:42:46;;;;;;;4.43;1.30;;;13.50;75.70;;;;;;5031506;28;20428;-43
2023/03/09 12:45:12;;;;;;;4.97;1.70;;;13.20;68.10;;;;;;5032584;28;20477;-43
2023/03/09 12:47:59;;;;;;;5.80;2.13;;;12.90;99.90;;;;;;5029658;28;20522;-42
2023/03/09 12:50:45;;;;;;;4.23;1.60;;;12.90;99.90;;;;;;5032871;28;20386;-41
2023/03/09 12:53:14;;;;;;;4.03;1.57;;;12.80;96.40;;;;;;5030899;28;20491;-43
2023/03/09 12:55:40;;;;;;;3.47;1.33;;;12.80;99.90;;;;;;5030895;28;20417;-40
2023/03/09 12:58:17;;;;;;;5.00;1.60;;;12.70;99.30;;;;;;5029566;28;20436;-41
2023/03/09 13:01:05;;;;;;;5.87;1.60;;;12.70;99.90;;;;;;5031085;28;20471;-40
2023/03/09 13:03:46;;;;;;;5.27;1.20;;;12.70;99.90;;;;;;5032906;28;20421;-41